createdAt,value
2019-03-06T00:00:58.133Z,13.80
2019-03-06T00:03:27.977Z,13.27
2019-03-06T00:05:57.740Z,19.50
2019-03-06T00:08:27.488Z,19.27
2019-03-06T00:10:57.250Z,13.17
2019-03-06T00:13:26.995Z,15.47
2019-03-06T00:15:56.765Z,17.90
2019-03-06T00:18:26.591Z,14.43
2019-03-06T00:20:56.367Z,17.53
2019-03-06T00:23:26.112Z,15.67
2019-03-06T00:25:55.971Z,17.53
2019-03-06T00:28:25.719Z,13.63
2019-03-06T00:30:57.049Z,20.37
2019-03-06T00:33:26.790Z,15.67
2019-03-06T00:35:58.163Z,17.67
2019-03-06T00:38:27.929Z,23.37
2019-03-06T00:41:03.158Z,34.43
2019-03-06T00:43:32.998Z,28.13
2019-03-06T00:46:02.763Z,22.17
2019-03-06T00:48:32.820Z,14.67
2019-03-06T00:51:02.623Z,15.37
2019-03-06T00:53:32.396Z,22.10
2019-03-06T00:56:02.257Z,27.87
2019-03-06T00:58:32.021Z,16.47
2019-03-06T01:01:01.786Z,16.37
2019-03-06T01:03:31.559Z,15.27
2019-03-06T01:06:02.004Z,17.67
2019-03-06T01:08:31.764Z,11.60
2019-03-06T01:11:01.529Z,12.63
2019-03-06T01:13:31.290Z,12.53
2019-03-06T01:16:01.033Z,14.17
2019-03-06T01:18:30.803Z,12.57
2019-03-06T01:21:00.554Z,13.37
2019-03-06T01:23:30.505Z,10.43
2019-03-06T01:26:00.235Z,11.53
2019-03-06T01:28:29.998Z,12.10
2019-03-06T01:30:59.741Z,9.53
2019-03-06T01:33:43.096Z,28.33
2019-03-06T01:36:20.670Z,17.57
2019-03-06T01:38:57.937Z,17.87
2019-03-06T01:41:47.392Z,19.43
2019-03-06T01:44:18.735Z,19.63
2019-03-06T01:46:48.507Z,20.07
2019-03-06T01:49:18.305Z,23.33
2019-03-06T01:51:48.085Z,31.27
2019-03-06T01:54:18.000Z,38.60
2019-03-06T01:56:47.796Z,27.60
2019-03-06T01:59:17.595Z,17.07
2019-03-06T02:01:47.550Z,14.53
2019-03-06T02:04:17.334Z,15.57
2019-03-06T02:06:47.112Z,16.87
2019-03-06T02:09:18.513Z,17.23
2019-03-06T02:11:48.294Z,14.20
2019-03-06T02:14:18.071Z,15.00
2019-03-06T02:16:47.833Z,12.83
2019-03-06T02:19:17.573Z,12.23
2019-03-06T02:21:47.383Z,13.50
2019-03-06T02:24:17.691Z,16.90
2019-03-06T02:26:48.523Z,19.17
2019-03-06T02:29:18.270Z,18.77
2019-03-06T02:31:48.030Z,17.37
2019-03-06T02:34:17.839Z,17.57
2019-03-06T02:36:47.613Z,13.90
2019-03-06T02:39:17.485Z,15.23
2019-03-06T02:41:47.269Z,18.10
2019-03-06T02:44:17.050Z,15.03
2019-03-06T02:46:47.816Z,28.37
2019-03-06T02:49:17.872Z,33.97
2019-03-06T02:51:47.681Z,30.77
2019-03-06T02:54:17.461Z,26.47
2019-03-06T02:56:47.232Z,27.77
2019-03-06T02:59:24.404Z,28.93
2019-03-06T03:02:11.108Z,27.43
2019-03-06T03:04:42.461Z,27.97
2019-03-06T03:07:13.262Z,21.87
2019-03-06T03:09:43.055Z,20.77
2019-03-06T03:12:12.833Z,17.93
2019-03-06T03:14:42.619Z,21.30
2019-03-06T03:17:12.397Z,20.70
2019-03-06T03:19:42.160Z,21.03
2019-03-06T03:22:11.901Z,15.47
2019-03-06T03:24:41.673Z,15.93
2019-03-06T03:27:11.421Z,24.90
2019-03-06T03:29:41.223Z,23.57
2019-03-06T03:32:11.362Z,22.60
2019-03-06T03:34:41.173Z,23.40
2019-03-06T03:37:10.940Z,25.33
2019-03-06T03:39:40.752Z,18.47
2019-03-06T03:42:12.637Z,22.20
2019-03-06T03:44:42.442Z,22.30
2019-03-06T03:47:12.220Z,17.20
2019-03-06T03:49:42.036Z,16.93
2019-03-06T03:52:11.814Z,15.73
2019-03-06T03:54:41.594Z,14.07
2019-03-06T03:57:13.060Z,18.03
2019-03-06T03:59:42.869Z,19.77
2019-03-06T04:02:12.650Z,19.47
2019-03-06T04:04:42.453Z,18.03
2019-03-06T04:07:12.229Z,22.10
2019-03-06T04:09:42.188Z,22.30
2019-03-06T04:12:11.968Z,20.77
2019-03-06T04:14:41.737Z,18.50
2019-03-06T04:17:11.496Z,20.10
2019-03-06T04:19:41.242Z,17.33
2019-03-06T04:22:11.306Z,18.20
2019-03-06T04:24:41.046Z,16.37
2019-03-06T04:27:10.819Z,16.70
2019-03-06T04:29:40.561Z,17.93
2019-03-06T04:32:10.372Z,25.47
2019-03-06T04:34:40.385Z,28.93
2019-03-06T04:37:10.177Z,34.23
2019-03-06T04:39:39.914Z,28.90
2019-03-06T04:42:09.682Z,32.63
2019-03-06T04:44:39.462Z,32.17
2019-03-06T04:47:09.276Z,35.63
2019-03-06T04:49:39.042Z,35.43
2019-03-06T04:52:08.824Z,42.90
2019-03-06T04:54:38.596Z,38.07
2019-03-06T04:57:08.332Z,29.37
2019-03-06T04:59:38.111Z,22.83
2019-03-06T05:02:07.862Z,20.60
2019-03-06T05:04:37.655Z,46.43
2019-03-06T05:07:07.409Z,518.60
2019-03-06T05:09:37.219Z,544.60
2019-03-06T05:12:06.980Z,422.20
2019-03-06T05:14:36.759Z,201.53
2019-03-06T05:17:08.213Z,101.60
2019-03-06T05:19:38.114Z,66.63
2019-03-06T05:22:08.170Z,41.17
2019-03-06T05:24:37.984Z,24.23
2019-03-06T05:27:07.746Z,24.40
2019-03-06T05:29:37.530Z,21.07
2019-03-06T05:32:27.422Z,24.67
2019-03-06T05:34:59.325Z,26.37
2019-03-06T05:37:51.962Z,28.00
2019-03-06T05:40:21.761Z,26.97
2019-03-06T05:42:51.632Z,21.93
2019-03-06T05:45:21.434Z,19.10
2019-03-06T05:47:51.208Z,22.50
2019-03-06T05:50:21.299Z,31.90
2019-03-06T05:52:51.082Z,27.63
2019-03-06T05:55:20.884Z,31.73
2019-03-06T05:57:50.655Z,34.27
2019-03-06T06:00:22.032Z,34.43
2019-03-06T06:02:51.862Z,31.70
2019-03-06T06:05:21.676Z,25.90
2019-03-06T06:07:51.456Z,28.60
2019-03-06T06:10:21.228Z,26.47
2019-03-06T06:12:51.185Z,36.50
2019-03-06T06:15:20.924Z,35.40
2019-03-06T06:17:50.708Z,28.67
2019-03-06T06:20:20.567Z,39.50
2019-03-06T06:22:51.935Z,49.13
2019-03-06T06:25:21.674Z,48.37
2019-03-06T06:27:51.520Z,61.30
2019-03-06T06:30:22.099Z,68.97
2019-03-06T06:32:52.038Z,49.53
2019-03-06T06:35:21.781Z,63.27
2019-03-06T06:37:51.583Z,64.33
2019-03-06T06:40:21.320Z,59.23
2019-03-06T06:42:51.100Z,61.83
2019-03-06T06:45:20.876Z,60.57
2019-03-06T06:48:10.929Z,58.70
2019-03-06T06:50:49.457Z,45.43
2019-03-06T06:53:40.631Z,37.13
2019-03-06T06:56:37.874Z,41.33
2019-03-06T06:59:11.443Z,38.93
2019-03-06T07:01:57.973Z,43.43
2019-03-06T07:04:51.885Z,38.70
2019-03-06T07:07:29.017Z,36.03
2019-03-06T07:10:00.394Z,30.53
2019-03-06T07:12:34.545Z,28.30
2019-03-06T07:15:13.304Z,21.93
2019-03-06T07:17:44.689Z,31.60
2019-03-06T07:20:17.779Z,32.90
2019-03-06T07:22:55.094Z,27.73
2019-03-06T07:25:26.469Z,31.83
2019-03-06T07:27:57.818Z,27.13
2019-03-06T07:30:35.282Z,26.30
2019-03-06T07:33:12.391Z,24.67
2019-03-06T07:36:06.020Z,22.00
2019-03-06T07:38:36.890Z,26.87
2019-03-06T07:41:08.262Z,25.63
2019-03-06T07:43:45.815Z,32.17
2019-03-06T07:46:17.455Z,29.47
2019-03-06T07:49:06.415Z,30.20
2019-03-06T07:51:37.783Z,28.23
2019-03-06T07:54:15.206Z,25.37
2019-03-06T07:56:56.328Z,21.90
2019-03-06T07:59:26.097Z,25.23
2019-03-06T08:01:58.995Z,20.03
2019-03-06T08:04:28.772Z,23.30
2019-03-06T08:07:00.140Z,27.03
2019-03-06T08:09:29.991Z,21.97
2019-03-06T08:12:01.374Z,19.80
2019-03-06T08:14:38.743Z,24.23
2019-03-06T08:17:26.611Z,27.43
2019-03-06T08:19:58.237Z,24.37
2019-03-06T08:22:38.903Z,23.47
2019-03-06T08:25:13.094Z,23.33
2019-03-06T08:27:42.903Z,26.43
2019-03-06T08:30:12.782Z,23.73
2019-03-06T08:32:42.569Z,19.43
2019-03-06T08:35:12.383Z,17.27
2019-03-06T08:37:42.116Z,18.60
2019-03-06T08:40:12.598Z,17.53
2019-03-06T08:42:42.347Z,20.97
2019-03-06T08:45:15.432Z,29.77
2019-03-06T08:47:46.735Z,24.93
2019-03-06T08:50:18.128Z,28.37
2019-03-06T08:52:49.431Z,31.03
2019-03-06T08:55:29.606Z,27.33
2019-03-06T08:58:19.319Z,23.87
2019-03-06T09:01:07.081Z,19.23
2019-03-06T09:03:47.406Z,18.57
2019-03-06T09:06:30.908Z,31.07
2019-03-06T09:09:08.128Z,29.73
2019-03-06T09:11:45.496Z,17.87
2019-03-06T09:14:20.193Z,19.57
2019-03-06T09:17:01.396Z,41.63
2019-03-06T09:19:48.972Z,28.30
2019-03-06T09:22:32.731Z,30.73
2019-03-06T09:25:04.069Z,23.83
2019-03-06T09:27:35.456Z,19.20
2019-03-06T09:30:30.067Z,24.73
2019-03-06T09:33:04.170Z,20.23
2019-03-06T09:35:41.441Z,21.27
2019-03-06T09:38:29.055Z,27.23
2019-03-06T09:41:17.098Z,23.17
2019-03-06T09:43:57.308Z,19.60
2019-03-06T09:46:34.665Z,23.10
2019-03-06T09:49:12.051Z,22.27
2019-03-06T09:51:43.395Z,24.40
2019-03-06T09:54:23.860Z,24.33
2019-03-06T09:56:55.216Z,32.13
2019-03-06T09:59:28.856Z,23.10
2019-03-06T10:02:06.719Z,24.73
2019-03-06T10:04:35.983Z,24.13
2019-03-06T10:07:10.309Z,23.40
2019-03-06T10:09:41.671Z,23.83
2019-03-06T10:12:19.040Z,25.67
2019-03-06T10:14:56.537Z,27.13
2019-03-06T10:17:33.863Z,34.03
2019-03-06T10:20:05.640Z,30.67
2019-03-06T10:22:35.403Z,23.93
2019-03-06T10:25:07.093Z,29.03
2019-03-06T10:27:36.878Z,26.83
2019-03-06T10:30:12.142Z,28.90
2019-03-06T10:32:42.189Z,23.23
2019-03-06T10:35:15.961Z,21.73
2019-03-06T10:37:45.815Z,23.30
2019-03-06T10:40:17.483Z,23.03
2019-03-06T10:42:47.252Z,27.57
2019-03-06T10:45:17.738Z,34.77
2019-03-06T10:47:47.896Z,33.27
2019-03-06T10:50:26.918Z,27.43
2019-03-06T10:52:53.721Z,25.43
2019-03-06T10:55:23.525Z,25.60
2019-03-06T10:57:53.571Z,24.33
2019-03-06T11:00:30.623Z,28.17
2019-03-06T11:03:00.685Z,22.67
2019-03-06T11:05:32.012Z,27.97
2019-03-06T11:08:02.103Z,25.00
2019-03-06T11:10:33.526Z,33.40
2019-03-06T11:13:08.499Z,37.47
2019-03-06T11:15:38.175Z,23.43
2019-03-06T11:18:08.337Z,22.40
2019-03-06T11:20:38.341Z,19.97
2019-03-06T11:23:11.764Z,21.93
2019-03-06T11:25:42.075Z,21.17
2019-03-06T11:28:13.019Z,21.83
2019-03-06T11:30:51.088Z,27.20
2019-03-06T11:33:21.968Z,23.33
2019-03-06T11:35:53.074Z,25.50
2019-03-06T11:38:22.841Z,29.97
2019-03-06T11:40:52.702Z,30.87
2019-03-06T11:43:22.470Z,23.97
2019-03-06T11:45:52.209Z,24.23
2019-03-06T11:48:22.025Z,25.77
2019-03-06T11:50:51.762Z,18.40
2019-03-06T11:53:21.551Z,18.40
2019-03-06T11:55:51.313Z,17.00
2019-03-06T11:58:21.617Z,21.90
2019-03-06T12:00:51.402Z,24.83
2019-03-06T12:03:22.297Z,21.53
2019-03-06T12:05:52.068Z,21.17
2019-03-06T12:08:21.852Z,17.40
2019-03-06T12:10:51.731Z,33.60
2019-03-06T12:13:21.486Z,30.53
2019-03-06T12:15:51.781Z,31.93
2019-03-06T12:18:23.065Z,27.37
2019-03-06T12:20:53.168Z,21.97
2019-03-06T12:23:22.999Z,22.67
2019-03-06T12:25:52.858Z,18.60
2019-03-06T12:28:22.610Z,17.83
2019-03-06T12:30:52.493Z,23.50
2019-03-06T12:33:27.108Z,20.33
2019-03-06T12:35:56.906Z,18.43
2019-03-06T12:38:26.641Z,16.80
2019-03-06T12:40:56.448Z,16.70
2019-03-06T12:43:26.199Z,20.03
2019-03-06T12:46:22.830Z,49.23
2019-03-06T12:48:48.169Z,14.60
2019-03-06T12:51:17.965Z,34.00
2019-03-06T12:53:47.917Z,15.40
2019-03-06T12:56:18.170Z,19.73
2019-03-06T12:58:48.070Z,22.17
2019-03-06T13:01:17.886Z,22.03
2019-03-06T13:03:47.686Z,16.63
2019-03-06T13:06:24.581Z,14.90
2019-03-06T13:08:50.605Z,17.53
2019-03-06T13:11:20.481Z,15.13
2019-03-06T13:13:50.260Z,23.50
2019-03-06T13:16:20.030Z,23.83
2019-03-06T13:18:49.816Z,28.07
2019-03-06T13:21:19.735Z,34.93
2019-03-06T13:23:49.535Z,28.63
2019-03-06T13:26:19.271Z,16.87
2019-03-06T13:28:57.046Z,50.50
2019-03-06T13:31:20.527Z,22.03
2019-03-06T13:33:58.376Z,18.90
2019-03-06T13:36:28.167Z,14.20
2019-03-06T13:39:06.014Z,16.30
2019-03-06T13:41:29.539Z,16.87
2019-03-06T13:43:59.298Z,20.13
2019-03-06T13:46:29.316Z,14.80
2019-03-06T13:48:59.132Z,16.80
2019-03-06T13:51:28.913Z,18.57
2019-03-06T13:53:58.693Z,15.83
2019-03-06T13:56:28.502Z,18.83
2019-03-06T13:58:58.355Z,19.27
2019-03-06T14:01:28.323Z,15.93
2019-03-06T14:03:58.096Z,21.33
2019-03-06T14:06:27.868Z,15.47
2019-03-06T14:08:57.642Z,14.73
2019-03-06T14:11:27.374Z,30.30
2019-03-06T14:13:57.180Z,15.33
2019-03-06T14:16:26.988Z,15.67
2019-03-06T14:18:56.821Z,15.50
2019-03-06T14:21:26.595Z,15.03
2019-03-06T14:23:56.716Z,14.13
2019-03-06T14:26:26.496Z,14.57
2019-03-06T14:28:56.479Z,20.50
2019-03-06T14:31:26.249Z,16.70
2019-03-06T14:33:56.347Z,16.43
2019-03-06T14:36:26.225Z,20.33
2019-03-06T14:38:56.012Z,20.43
2019-03-06T14:41:25.874Z,17.90
2019-03-06T14:43:55.631Z,24.93
2019-03-06T14:46:25.444Z,21.50
2019-03-06T14:48:55.286Z,23.73
2019-03-06T14:51:25.077Z,25.43
2019-03-06T14:53:54.861Z,23.67
2019-03-06T14:56:24.672Z,25.13
2019-03-06T14:58:54.442Z,20.07
2019-03-06T15:01:24.241Z,21.93
2019-03-06T15:03:54.021Z,28.67
2019-03-06T15:06:23.810Z,24.70
2019-03-06T15:08:53.647Z,22.43
2019-03-06T15:11:23.564Z,38.10
2019-03-06T15:13:54.440Z,63.43
2019-03-06T15:16:24.198Z,29.13
2019-03-06T15:18:53.968Z,52.57
2019-03-06T15:21:23.754Z,37.73
2019-03-06T15:23:53.852Z,35.63
2019-03-06T15:26:23.637Z,27.57
2019-03-06T15:28:53.443Z,43.53
2019-03-06T15:31:23.233Z,35.43
2019-03-06T15:33:53.137Z,36.07
2019-03-06T15:36:22.924Z,72.47
2019-03-06T15:38:52.825Z,47.30
2019-03-06T15:41:22.617Z,38.73
2019-03-06T15:43:52.365Z,38.33
2019-03-06T15:46:22.170Z,61.30
2019-03-06T15:48:51.915Z,35.43
2019-03-06T15:51:21.972Z,28.43
2019-03-06T15:53:51.749Z,53.90
2019-03-06T15:56:21.531Z,118.33
2019-03-06T15:58:51.327Z,158.10
2019-03-06T16:01:21.086Z,102.53
2019-03-06T16:03:51.207Z,292.33
2019-03-06T16:06:21.050Z,56.33
2019-03-06T16:08:50.837Z,212.20
2019-03-06T16:11:20.632Z,150.67
2019-03-06T16:13:50.454Z,78.90
2019-03-06T16:16:20.480Z,125.07
2019-03-06T16:18:50.468Z,110.40
2019-03-06T16:21:20.306Z,112.93
2019-03-06T16:23:50.116Z,73.53
2019-03-06T16:26:19.933Z,78.70
2019-03-06T16:28:49.760Z,55.03
2019-03-06T16:31:19.759Z,67.10
2019-03-06T16:33:49.503Z,129.30
2019-03-06T16:36:19.311Z,90.43
2019-03-06T16:38:49.062Z,61.77
2019-03-06T16:41:18.857Z,57.80
2019-03-06T16:43:48.707Z,61.67
2019-03-06T16:46:18.488Z,58.57
2019-03-06T16:48:48.359Z,65.87
2019-03-06T16:51:18.093Z,58.93
2019-03-06T16:53:47.892Z,79.03
2019-03-06T16:56:17.664Z,83.33
2019-03-06T16:58:47.712Z,77.43
2019-03-06T17:01:17.581Z,79.90
2019-03-06T17:03:47.371Z,74.23
2019-03-06T17:06:17.214Z,78.03
2019-03-06T17:08:46.952Z,84.17
2019-03-06T17:11:16.879Z,79.13
2019-03-06T17:13:46.735Z,65.63
2019-03-06T17:16:16.972Z,49.10
2019-03-06T17:18:46.696Z,45.43
2019-03-06T17:21:16.595Z,41.90
2019-03-06T17:23:46.346Z,57.43
2019-03-06T17:26:16.764Z,90.90
2019-03-06T17:28:47.540Z,59.40
2019-03-06T17:31:17.339Z,146.63
2019-03-06T17:33:47.089Z,96.00
2019-03-06T17:36:16.917Z,96.77
2019-03-06T17:38:46.683Z,78.87
2019-03-06T17:41:16.459Z,121.33
2019-03-06T17:43:46.238Z,102.47
2019-03-06T17:46:16.042Z,84.07
2019-03-06T17:48:45.827Z,105.77
2019-03-06T17:51:15.595Z,104.10
2019-03-06T17:53:45.660Z,339.57
2019-03-06T17:56:15.405Z,164.20
2019-03-06T17:58:45.213Z,342.40
2019-03-06T18:01:16.531Z,388.73
2019-03-06T18:03:50.719Z,534.93
2019-03-06T18:06:19.442Z,351.43
2019-03-06T18:08:49.250Z,460.23
2019-03-06T18:11:18.993Z,539.40
2019-03-06T18:13:48.778Z,402.23
2019-03-06T18:16:21.110Z,513.63
2019-03-06T18:18:51.874Z,398.40
2019-03-06T18:21:22.907Z,258.30
2019-03-06T18:23:54.006Z,183.93
2019-03-06T18:26:24.544Z,113.70
2019-03-06T18:28:55.581Z,96.40
2019-03-06T18:31:26.061Z,117.87
2019-03-06T18:33:56.655Z,372.97
2019-03-06T18:36:27.523Z,586.50
2019-03-06T18:38:57.801Z,925.50
2019-03-06T18:41:27.710Z,355.60
2019-03-06T18:43:57.514Z,199.80
2019-03-06T18:46:27.567Z,125.57
2019-03-06T18:48:57.390Z,112.60
2019-03-06T18:51:27.186Z,56.07
2019-03-06T18:53:56.999Z,62.40
2019-03-06T18:56:58.312Z,115.53
2019-03-06T19:00:14.243Z,163.97
2019-03-06T19:03:04.471Z,117.57
2019-03-06T19:05:41.384Z,89.67
2019-03-06T19:08:19.604Z,138.37
2019-03-06T19:10:57.252Z,200.47
2019-03-06T19:13:37.687Z,192.90
2019-03-06T19:16:08.424Z,110.00
2019-03-06T19:18:40.886Z,101.73
2019-03-06T19:21:17.871Z,239.33
2019-03-06T19:23:53.615Z,124.13
2019-03-06T19:26:34.697Z,118.60
2019-03-06T19:29:13.431Z,124.27
2019-03-06T19:38:49.648Z,107.07
2019-03-06T19:41:09.767Z,120.77
2019-03-06T19:43:48.008Z,109.83
2019-03-06T19:46:31.636Z,332.30
2019-03-06T19:49:21.979Z,175.10
2019-03-06T19:51:58.971Z,88.73
2019-03-06T19:54:37.475Z,93.17
2019-03-06T19:57:30.149Z,70.97
2019-03-06T20:00:03.637Z,70.50
2019-03-06T20:02:40.887Z,77.13
2019-03-06T20:05:16.296Z,60.83
2019-03-06T20:07:52.534Z,62.17
2019-03-06T20:10:23.635Z,92.00
2019-03-06T20:12:55.287Z,99.73
2019-03-06T20:15:30.309Z,52.47
2019-03-06T20:18:25.337Z,42.23
2019-03-06T20:20:48.138Z,49.30
2019-03-06T20:23:19.902Z,49.43
2019-03-06T20:25:55.365Z,75.37
2019-03-06T20:28:37.758Z,59.63
2019-03-06T20:31:17.205Z,80.83
2019-03-06T20:33:57.567Z,109.87
2019-03-06T20:36:39.536Z,63.37
2019-03-06T20:39:12.966Z,68.60
2019-03-06T20:41:57.266Z,61.13
2019-03-06T20:44:32.526Z,59.93
2019-03-06T20:47:04.128Z,80.80
2019-03-06T20:49:35.645Z,169.00
2019-03-06T20:52:10.628Z,159.73
2019-03-06T20:54:52.633Z,208.67
2019-03-06T20:57:27.314Z,202.73
2019-03-06T21:00:12.773Z,312.53
2019-03-06T21:02:49.194Z,588.77
2019-03-06T21:05:19.666Z,510.53
2019-03-06T21:08:05.078Z,559.97
2019-03-06T21:10:24.662Z,490.40
2019-03-06T21:12:54.937Z,572.63
2019-03-06T21:15:32.643Z,267.70
2019-03-06T21:18:04.478Z,433.10
2019-03-06T21:20:42.994Z,104.50
2019-03-06T21:23:14.764Z,147.00
2019-03-06T21:25:46.703Z,93.87
2019-03-06T21:31:22.948Z,93.43
2019-03-06T21:33:55.125Z,96.97
2019-03-06T21:36:25.332Z,66.63
2019-03-06T21:39:00.466Z,61.47
2019-03-06T21:41:30.373Z,59.97
2019-03-06T21:44:01.965Z,45.53
2019-03-06T21:46:31.811Z,44.17
2019-03-06T21:49:01.549Z,46.20
2019-03-06T21:51:31.323Z,44.37
2019-03-06T21:54:01.090Z,40.73
2019-03-06T21:56:30.824Z,36.70
2019-03-06T21:59:00.786Z,38.90
2019-03-06T22:01:31.626Z,35.97
2019-03-06T22:04:01.751Z,35.00
2019-03-06T22:06:31.662Z,32.83
2019-03-06T22:09:01.444Z,34.73
2019-03-06T22:11:31.320Z,32.40
2019-03-06T22:14:01.100Z,28.70
2019-03-06T22:16:30.892Z,31.63
2019-03-06T22:19:01.053Z,27.70
2019-03-06T22:21:30.915Z,28.63
2019-03-06T22:24:00.725Z,28.30
2019-03-06T22:26:30.518Z,33.03
2019-03-06T22:29:00.251Z,33.17
2019-03-06T22:31:30.056Z,35.30
2019-03-06T22:33:59.786Z,36.87
2019-03-06T22:36:29.549Z,49.93
2019-03-06T22:38:59.309Z,49.80
2019-03-06T22:41:29.189Z,75.87
2019-03-06T22:43:58.964Z,52.73
2019-03-06T22:46:28.726Z,59.67
2019-03-06T22:48:58.490Z,42.87
2019-03-06T22:51:28.254Z,34.60
2019-03-06T22:53:58.110Z,34.27
2019-03-06T22:56:27.836Z,33.03
2019-03-06T22:58:57.597Z,37.30
2019-03-06T23:01:27.375Z,41.03
2019-03-06T23:03:57.148Z,35.67
2019-03-06T23:06:26.926Z,37.10
2019-03-06T23:08:56.685Z,42.60
2019-03-06T23:11:26.553Z,38.13
2019-03-06T23:13:56.287Z,39.93
2019-03-06T23:16:26.059Z,31.70
2019-03-06T23:18:55.823Z,38.40
2019-03-06T23:21:25.693Z,35.97
2019-03-06T23:23:55.477Z,29.10
2019-03-06T23:26:25.245Z,29.87
2019-03-06T23:28:55.011Z,32.73
2019-03-06T23:31:24.752Z,29.17
2019-03-06T23:33:54.918Z,24.37
2019-03-06T23:36:24.655Z,26.47
2019-03-06T23:38:54.413Z,30.50
2019-03-06T23:41:24.175Z,28.83
2019-03-06T23:43:53.949Z,27.50
2019-03-06T23:46:23.722Z,31.00
2019-03-06T23:48:53.686Z,28.83
2019-03-06T23:51:25.025Z,26.17
2019-03-06T23:53:54.820Z,23.67
2019-03-06T23:56:24.660Z,25.80
2019-03-06T23:58:54.417Z,32.30
